createdAt,value
2019-04-23T00:02:24.537Z,6.90
2019-04-23T00:04:51.237Z,9.07
2019-04-23T00:07:39.752Z,8.00
2019-04-23T00:10:01.171Z,8.13
2019-04-23T00:12:37.429Z,7.77
2019-04-23T00:15:04.378Z,10.00
2019-04-23T00:17:30.433Z,12.27
2019-04-23T00:20:03.389Z,10.23
2019-04-23T00:22:29.058Z,9.43
2019-04-23T00:25:41.090Z,8.10
2019-04-23T00:30:18.832Z,11.00
2019-04-23T00:32:48.069Z,8.90
2019-04-23T00:35:18.173Z,10.03
2019-04-23T00:37:49.571Z,10.47
2019-04-23T00:40:19.039Z,12.20
2019-04-23T00:42:47.738Z,12.10
2019-04-23T00:45:27.235Z,12.47
2019-04-23T00:47:52.753Z,9.23
2019-04-23T00:52:49.927Z,11.37
2019-04-23T00:55:26.475Z,11.37
2019-04-23T01:00:34.142Z,10.60
2019-04-23T01:02:52.867Z,10.47
2019-04-23T01:05:27.651Z,10.17
2019-04-23T01:07:51.537Z,11.70
2019-04-23T01:10:26.840Z,11.57
2019-04-23T01:12:59.714Z,10.93
2019-04-23T01:15:32.830Z,12.13
2019-04-23T01:18:19.091Z,16.10
2019-04-23T01:20:37.324Z,10.07
2019-04-23T01:22:48.801Z,13.60
2019-04-23T01:25:33.778Z,15.73
2019-04-23T01:28:25.338Z,13.43
2019-04-23T01:30:57.125Z,12.73
2019-04-23T01:33:29.975Z,13.13
2019-04-23T01:36:03.200Z,14.60
2019-04-23T01:38:28.569Z,13.93
2019-04-23T01:40:45.886Z,14.27
2019-04-23T01:43:23.802Z,12.07
2019-04-23T01:45:51.477Z,14.20
2019-04-23T01:48:18.538Z,14.53
2019-04-23T01:50:54.958Z,17.10
2019-04-23T01:53:26.808Z,17.47
2019-04-23T01:58:40.271Z,17.20
2019-04-23T02:00:56.334Z,18.10
2019-04-23T02:03:26.924Z,19.13
2019-04-23T02:06:04.882Z,15.07
2019-04-23T02:08:40.147Z,15.80
2019-04-23T02:10:56.304Z,16.93
2019-04-23T02:13:33.864Z,20.97
2019-04-23T02:15:54.921Z,20.67
2019-04-23T02:18:45.536Z,20.53
2019-04-23T02:20:59.524Z,24.80
2019-04-23T02:23:31.248Z,21.37
2019-04-23T02:26:12.941Z,21.10
2019-04-23T02:28:32.875Z,23.13
2019-04-23T02:31:35.811Z,23.47
2019-04-23T02:38:58.105Z,28.47
2019-04-23T02:41:26.731Z,40.77
2019-04-23T02:43:59.197Z,23.03
2019-04-23T02:46:24.495Z,27.00
2019-04-23T02:48:59.865Z,27.40
2019-04-23T02:51:45.945Z,34.80
2019-04-23T03:01:51.763Z,32.07
2019-04-23T03:04:37.321Z,31.13
2019-04-23T03:12:26.601Z,37.70
2019-04-23T03:17:19.068Z,41.20
2019-04-23T03:20:21.461Z,39.83
2019-04-23T03:28:29.668Z,35.07
2019-04-23T03:41:21.350Z,38.13
2019-04-23T03:51:11.437Z,36.67
2019-04-23T03:54:03.929Z,46.30
2019-04-23T03:59:01.229Z,40.50
2019-04-23T04:01:29.309Z,37.60
2019-04-23T04:06:43.223Z,39.87
2019-04-23T04:11:33.427Z,38.80
2019-04-23T04:16:49.187Z,40.47
2019-04-23T04:19:31.974Z,34.27
2019-04-23T04:21:58.537Z,40.07
2019-04-23T04:27:24.510Z,40.70
2019-04-23T04:32:24.653Z,37.97
2019-04-23T04:42:30.768Z,35.63
2019-04-23T04:55:00.111Z,28.83
2019-04-23T05:05:14.386Z,26.80
2019-04-23T05:10:25.834Z,24.53
2019-04-23T05:12:56.399Z,19.00
2019-04-23T05:18:23.893Z,18.57
2019-04-23T05:20:58.501Z,18.10
2019-04-23T05:25:51.428Z,14.73
2019-04-23T05:28:32.982Z,15.48
2019-04-23T05:33:25.374Z,17.42
2019-04-23T05:36:13.112Z,15.10
2019-04-23T05:41:16.983Z,17.20
2019-04-23T05:46:21.255Z,14.93
2019-04-23T05:48:49.169Z,13.80
2019-04-23T05:53:47.179Z,16.60
2019-04-23T05:56:15.241Z,19.32
2019-04-23T05:58:46.848Z,15.60
2019-04-23T06:01:47.282Z,17.07
2019-04-23T06:06:47.140Z,16.93
2019-04-23T06:12:01.383Z,12.53
2019-04-23T06:14:30.773Z,15.32
2019-04-23T06:17:02.124Z,19.17
2019-04-23T06:19:21.075Z,13.95
2019-04-23T06:22:07.405Z,14.83
2019-04-23T06:24:41.439Z,30.92
2019-04-23T06:27:00.653Z,16.65
2019-04-23T06:31:54.059Z,14.13
2019-04-23T06:34:31.174Z,12.47
2019-04-23T06:36:58.882Z,17.32
2019-04-23T06:39:35.978Z,15.10
2019-04-23T06:42:02.113Z,13.00
2019-04-23T06:44:32.174Z,11.78
2019-04-23T06:47:03.250Z,13.38
2019-04-23T06:49:40.423Z,13.32
2019-04-23T06:59:37.238Z,13.48
2019-04-23T07:04:43.420Z,11.08
2019-04-23T07:07:31.560Z,13.22
2019-04-23T07:12:29.768Z,12.68
2019-04-23T07:14:55.442Z,13.15
2019-04-23T07:17:34.291Z,11.65
2019-04-23T07:19:54.834Z,13.58
2019-04-23T07:22:23.582Z,14.65
2019-04-23T07:24:52.886Z,20.17
2019-04-23T07:27:27.729Z,12.15
2019-04-23T07:30:03.949Z,17.20
2019-04-23T07:32:23.726Z,12.35
2019-04-23T07:35:00.933Z,12.47
2019-04-23T07:40:26.367Z,10.25
2019-04-23T07:42:44.610Z,20.27
2019-04-23T07:45:19.348Z,12.23
2019-04-23T07:48:10.983Z,11.25
2019-04-23T07:50:40.801Z,11.60
2019-04-23T07:55:57.152Z,10.82
2019-04-23T08:03:31.289Z,15.13
2019-04-23T08:06:05.900Z,12.93
2019-04-23T08:08:26.542Z,14.10
2019-04-23T08:11:25.612Z,11.28
2019-04-23T08:13:41.658Z,12.60
2019-04-23T08:16:18.350Z,11.78
2019-04-23T08:18:45.342Z,14.70
2019-04-23T08:21:10.664Z,12.43
2019-04-23T08:23:52.169Z,11.05
2019-04-23T08:26:42.136Z,12.80
2019-04-23T08:34:17.146Z,13.40
2019-04-23T08:36:46.256Z,15.18
2019-04-23T08:39:12.464Z,15.60
2019-04-23T08:41:48.366Z,15.32
2019-04-23T08:44:21.627Z,15.00
2019-04-23T08:49:43.615Z,14.55
2019-04-23T08:59:38.918Z,17.32
2019-04-23T09:04:45.601Z,14.23
2019-04-23T09:07:12.812Z,15.75
2019-04-23T09:12:14.864Z,11.43
2019-04-23T09:14:38.283Z,17.07
2019-04-23T09:17:13.021Z,14.18
2019-04-23T09:22:18.786Z,11.05
2019-04-23T09:24:44.888Z,12.53
2019-04-23T09:27:19.378Z,14.68
2019-04-23T09:29:46.034Z,12.50
2019-04-23T09:37:37.300Z,10.45
2019-04-23T09:40:16.737Z,9.93
2019-04-23T09:42:46.362Z,11.75
2019-04-23T09:50:32.974Z,13.72
2019-04-23T09:55:33.395Z,11.03
2019-04-23T10:00:37.998Z,13.60
2019-04-23T10:02:55.535Z,14.78
2019-04-23T10:05:21.771Z,10.30
2019-04-23T10:07:47.050Z,9.20
2019-04-23T10:10:10.166Z,10.03
2019-04-23T10:12:39.929Z,15.35
2019-04-23T10:15:16.394Z,11.10
2019-04-23T10:17:40.312Z,12.70
2019-04-23T10:20:10.837Z,10.43
2019-04-23T10:22:39.649Z,11.88
2019-04-23T10:25:08.983Z,10.68
2019-04-23T10:27:39.054Z,8.73
2019-04-23T10:30:08.254Z,11.08
2019-04-23T10:32:37.798Z,13.08
2019-04-23T10:35:20.535Z,10.13
2019-04-23T10:37:46.780Z,9.03
2019-04-23T10:40:16.974Z,9.65
2019-04-23T10:42:43.239Z,25.50
2019-04-23T10:45:34.945Z,12.43
2019-04-23T10:48:32.780Z,9.75
2019-04-23T10:51:05.216Z,10.78
2019-04-23T10:56:11.358Z,11.80
2019-04-23T10:58:35.425Z,11.28
2019-04-23T11:01:14.911Z,10.58
2019-04-23T11:03:48.691Z,10.30
2019-04-23T11:08:37.038Z,10.00
2019-04-23T11:13:50.301Z,11.80
2019-04-23T11:16:45.902Z,15.45
2019-04-23T11:21:38.583Z,9.53
2019-04-23T11:24:11.087Z,9.98
2019-04-23T11:26:34.503Z,13.18
2019-04-23T11:29:16.286Z,7.72
2019-04-23T11:34:07.455Z,13.95
2019-04-23T11:39:32.601Z,8.23
2019-04-23T11:42:14.295Z,12.40
2019-04-23T11:47:42.526Z,9.33
2019-04-23T11:52:23.732Z,9.45
2019-04-23T11:54:51.363Z,9.83
2019-04-23T11:59:44.221Z,10.38
2019-04-23T12:02:22.047Z,8.73
2019-04-23T12:05:00.851Z,12.98
2019-04-23T12:10:14.428Z,11.57
2019-04-23T12:18:03.361Z,19.70
2019-04-23T12:22:51.771Z,10.48
2019-04-23T12:27:59.638Z,8.55
2019-04-23T12:33:08.543Z,9.88
2019-04-23T12:35:44.078Z,10.80
2019-04-23T12:43:30.691Z,13.55
2019-04-23T12:45:46.899Z,6.62
2019-04-23T12:53:30.584Z,10.05
2019-04-23T12:55:56.462Z,7.50
2019-04-23T12:58:27.023Z,10.60
2019-04-23T13:01:02.158Z,12.70
2019-04-23T13:03:29.917Z,7.67
2019-04-23T13:05:51.195Z,9.18
2019-04-23T13:08:46.055Z,9.80
2019-04-23T13:10:57.709Z,9.55
2019-04-23T13:13:28.035Z,8.43
2019-04-23T13:16:02.548Z,8.18
2019-04-23T13:18:46.979Z,6.12
2019-04-23T13:23:55.039Z,10.40
2019-04-23T13:26:32.099Z,11.97
2019-04-23T13:29:01.431Z,8.33
2019-04-23T13:31:30.843Z,13.10
2019-04-23T13:34:04.705Z,8.35
2019-04-23T13:36:36.238Z,11.40
2019-04-23T13:39:03.278Z,50.23
2019-04-23T13:41:33.357Z,10.48
2019-04-23T13:44:00.109Z,13.18
2019-04-23T13:46:40.968Z,10.53
2019-04-23T13:49:03.130Z,10.95
2019-04-23T13:51:44.237Z,9.98
2019-04-23T13:54:08.213Z,11.10
2019-04-23T13:56:56.244Z,8.98
2019-04-23T14:01:59.712Z,13.83
2019-04-23T14:05:00.103Z,8.50
2019-04-23T14:10:12.693Z,7.80
2019-04-23T14:12:50.745Z,6.83
2019-04-23T14:18:13.271Z,8.85
2019-04-23T14:25:50.729Z,8.95
2019-04-23T14:28:30.792Z,9.58
2019-04-23T14:30:51.055Z,8.55
2019-04-23T14:33:18.553Z,7.35
2019-04-23T14:38:30.269Z,8.65
2019-04-23T14:43:31.448Z,10.63
2019-04-23T14:46:27.134Z,7.50
2019-04-23T14:48:38.642Z,7.12
2019-04-23T14:51:14.898Z,19.32
2019-04-23T14:53:40.109Z,7.47
2019-04-23T14:56:14.812Z,19.70
2019-04-23T15:01:22.368Z,10.85
2019-04-23T15:03:46.290Z,10.95
2019-04-23T15:13:44.676Z,9.93
2019-04-23T15:16:16.405Z,10.75
2019-04-23T15:19:06.747Z,14.95
2019-04-23T15:24:17.556Z,6.83
2019-04-23T15:28:49.074Z,11.57
2019-04-23T15:31:41.231Z,10.45
2019-04-23T15:41:49.540Z,9.55
2019-04-23T15:44:16.193Z,11.73
2019-04-23T15:49:14.746Z,7.97
2019-04-23T15:51:45.108Z,10.78
2019-04-23T16:01:37.188Z,9.75
2019-04-23T16:03:48.802Z,8.75
2019-04-23T16:06:20.366Z,12.63
2019-04-23T16:09:06.452Z,9.30
2019-04-23T16:11:45.391Z,7.92
2019-04-23T16:17:02.132Z,10.53
2019-04-23T16:31:54.661Z,7.15
2019-04-23T16:34:28.870Z,13.10
2019-04-23T16:39:21.979Z,5.83
2019-04-23T16:42:02.237Z,11.65
2019-04-23T16:44:34.971Z,6.07
2019-04-23T16:47:04.538Z,8.45
2019-04-23T16:49:34.770Z,8.35
2019-04-23T16:51:53.914Z,11.93
2019-04-23T16:54:33.151Z,7.87
2019-04-23T16:59:35.385Z,7.72
2019-04-23T17:04:49.955Z,9.00
2019-04-23T17:07:25.616Z,7.10
2019-04-23T17:12:22.601Z,7.33
2019-04-23T17:17:34.558Z,9.60
2019-04-23T17:20:10.226Z,6.10
2019-04-23T17:22:38.680Z,5.85
2019-04-23T17:25:15.700Z,9.40
2019-04-23T17:27:45.029Z,10.93
2019-04-23T17:30:11.540Z,9.53
2019-04-23T17:32:58.522Z,7.33
2019-04-23T17:38:07.749Z,7.60
2019-04-23T17:40:50.189Z,7.67
2019-04-23T17:43:17.860Z,5.83
2019-04-23T17:46:01.201Z,6.83
2019-04-23T17:51:11.429Z,9.67
2019-04-23T17:53:38.268Z,15.23
2019-04-23T17:56:20.047Z,9.33
2019-04-23T18:01:27.863Z,9.33
2019-04-23T18:04:06.521Z,8.20
2019-04-23T18:06:37.303Z,10.73
2019-04-23T18:09:07.616Z,8.90
2019-04-23T18:11:30.034Z,8.13
2019-04-23T18:14:02.597Z,8.37
2019-04-23T18:19:11.578Z,11.47
2019-04-23T18:24:25.477Z,18.20
2019-04-23T18:26:56.880Z,12.73
2019-04-23T18:29:31.562Z,9.60
2019-04-23T18:32:01.112Z,15.40
2019-04-23T18:35:03.999Z,7.20
2019-04-23T18:42:28.624Z,10.07
2019-04-23T18:47:29.334Z,6.77
2019-04-23T18:52:29.588Z,10.23
2019-04-23T18:54:48.213Z,11.97
2019-04-23T18:57:12.680Z,8.00
2019-04-23T19:02:35.433Z,10.43
2019-04-23T19:12:56.957Z,9.20
2019-04-23T19:15:30.811Z,9.80
2019-04-23T19:18:04.178Z,10.47
2019-04-23T19:20:45.283Z,7.70
2019-04-23T19:25:46.766Z,13.50
2019-04-23T19:28:42.625Z,8.10
2019-04-23T19:33:48.991Z,10.47
2019-04-23T19:36:21.382Z,10.10
2019-04-23T19:41:10.765Z,10.47
2019-04-23T19:46:48.012Z,6.60
2019-04-23T19:51:39.764Z,9.37
2019-04-23T19:54:10.954Z,7.57
2019-04-23T19:56:37.237Z,9.77
2019-04-23T20:01:29.595Z,6.77
2019-04-23T20:03:59.182Z,10.77
2019-04-23T20:07:00.144Z,12.97
2019-04-23T20:11:54.706Z,11.67
2019-04-23T20:14:25.203Z,8.53
2019-04-23T20:19:30.068Z,13.60
2019-04-23T20:24:39.687Z,10.13
2019-04-23T20:35:07.017Z,8.50
2019-04-23T20:37:42.311Z,8.77
2019-04-23T20:42:53.326Z,9.40
2019-04-23T20:50:13.637Z,12.00
2019-04-23T20:52:46.861Z,11.70
2019-04-23T20:55:47.060Z,9.63
2019-04-23T21:01:09.261Z,9.67
2019-04-23T21:06:07.069Z,9.80
2019-04-23T21:08:53.739Z,10.20
2019-04-23T21:14:10.942Z,11.70
2019-04-23T21:16:31.013Z,12.33
2019-04-23T21:19:02.562Z,13.77
2019-04-23T21:24:07.222Z,8.93
2019-04-23T21:26:42.323Z,13.03
2019-04-23T21:29:03.910Z,11.07
2019-04-23T21:31:48.600Z,13.23
2019-04-23T21:36:46.386Z,10.00
2019-04-23T21:39:41.387Z,16.97
2019-04-23T21:44:38.424Z,11.13
2019-04-23T21:47:11.320Z,10.97
2019-04-23T21:49:58.008Z,11.33
2019-04-23T21:52:14.530Z,12.10
2019-04-23T21:54:49.165Z,17.17
2019-04-23T21:57:18.015Z,11.57
2019-04-23T21:59:50.458Z,9.73
2019-04-23T22:02:23.255Z,14.13
2019-04-23T22:04:52.059Z,10.73
2019-04-23T22:07:20.811Z,11.60
2019-04-23T22:12:13.538Z,12.10
2019-04-23T22:14:47.012Z,14.40
2019-04-23T22:17:20.216Z,9.27
2019-04-23T22:19:58.550Z,13.93
2019-04-23T22:22:16.236Z,17.57
2019-04-23T22:24:48.241Z,15.33
2019-04-23T22:27:39.658Z,12.70
2019-04-23T22:35:07.957Z,10.87
2019-04-23T22:37:44.174Z,9.30
2019-04-23T22:40:04.732Z,14.73
2019-04-23T22:43:49.042Z,12.73
2019-04-23T22:48:04.876Z,12.17
2019-04-23T22:50:48.489Z,14.00
2019-04-23T22:55:49.761Z,16.60
2019-04-23T22:58:15.331Z,15.90
2019-04-23T23:00:57.761Z,12.80
2019-04-23T23:03:22.745Z,12.90
2019-04-23T23:08:24.020Z,10.93
2019-04-23T23:10:58.949Z,13.03
2019-04-23T23:18:22.712Z,16.13
2019-04-23T23:23:22.636Z,14.20
2019-04-23T23:25:55.437Z,13.77
2019-04-23T23:28:31.597Z,13.73
2019-04-23T23:31:03.961Z,11.63
2019-04-23T23:33:24.676Z,17.13
2019-04-23T23:36:00.140Z,19.70
2019-04-23T23:38:33.569Z,11.47
2019-04-23T23:41:12.626Z,15.03
2019-04-23T23:48:51.293Z,16.77
2019-04-23T23:53:57.340Z,13.03
2019-04-23T23:56:31.683Z,16.70
